Messwerte Anderson Municipal

Temperatur

Temperatur
°C
1620255600 19.00 19.00 15
1620259200 20.00 20.00 14
1620262800 21.00 21.00 13
1620266400 22.00 22.00 10
1620270000 23.00 23.00 9
1620273600 0.00 0.00 7
1620277200 1.00 1.00 6
1620280800 2.00 2.00 4
1620284400 3.00 3.00 4
1620288000 4.00 4.00 3
1620291600 5.00 5.00 3
1620295200 6.00 6.00 3
1620298800 7.00 7.00 3
1620302400 8.00 8.00 4
1620306000 9.00 9.00 6
1620309600 10.00 10.00 10
1620313200 11.00 11.00
1620316800 12.00 12.00 13
1620320400 13.00 13.00
1620324000 14.00 14.00 14
1620327600 15.00 15.00
1620331200 16.00 16.00
1620334800 17.00 17.00
1620338400 18.00 18.00

Wir danken unserem Partner:

Aktuellste Messwerte

Wettercharakter
Wetter: bedeckt mit Gewittern
Temperatur
13 °C
Feuchtigkeit
65 %
Wind
5 km/hWindrichtung: West
Luftdruck
1016 hPa
Messzeit: 6. Mai 2021, 18.00Datenquelle: METAR

Weitere Messstationen in der Nähe

Messstation Temperatur Entfernung
Muncie 14 °C 23 km
Kokomo 11 °C 59 km
Shelbyville 14 °C 62 km
Indianapolis 14 °C 66 km
Indianapolis 14 °C 70 km
Grissom Air Force Base / Peru 11 °C 74 km
Columbus / Bakalar 13 °C 99 km

Wind

Windrichtung Böen Mittelwind
° km/h km/h
1620255600 19.00 18.00 - 19.00 320° 25
1620259200 20.00 19.00 - 20.00 340° 30 20
1620262800 21.00 20.00 - 21.00 340° 20
1620266400 22.00 21.00 - 22.00 350° 10
1620270000 23.00 22.00 - 23.00 360° 5
1620273600 0.00 23.00 - 0.00 0
1620277200 1.00 0.00 - 1.00 0
1620280800 2.00 1.00 - 2.00 0
1620284400 3.00 2.00 - 3.00 0
1620288000 4.00 3.00 - 4.00 0
1620291600 5.00 4.00 - 5.00 0
1620295200 6.00 5.00 - 6.00 0
1620298800 7.00 6.00 - 7.00 0
1620302400 8.00 7.00 - 8.00 0
1620306000 9.00 8.00 - 9.00 0
1620309600 10.00 9.00 - 10.00 160° 5
1620313200 11.00 10.00 - 11.00
1620316800 12.00 11.00 - 12.00 170° 10
1620320400 13.00 12.00 - 13.00
1620324000 14.00 13.00 - 14.00 230° 25 15
1620327600 15.00 14.00 - 15.00 230° 25 15
1620331200 16.00 15.00 - 16.00
1620334800 17.00 16.00 - 17.00
1620338400 18.00 17.00 - 18.00

Ihre Wetterstation

Fehlt Ihre Wetterstation auf unserem Portal?

Schreiben Sie an network@meteonews.ch

Klima

Wann ist es am wärmsten? Wann regnet es am wenigsten? Unsere Klimadaten geben Auskunft.